This is the latest recevied weather packets stored in our database for station/object KQ7A. If no packets are shown the sender has not sent any weather packets the latest 10 day(s).
| Time | Temp. | Humidity | Pressure | Rain* | Wind** | Luminosity | Snow |
|---|---|---|---|---|---|---|---|
| 1778125967 | 12.78° C | 57% | 1021.5 hPa | 0 mm | - | 0 W/m² | - |
| 1778125665 | 13.33° C | 54% | 1021.2 hPa | 0 mm | - | 0 W/m² | - |
| 1778125361 | 13.89° C | 51% | 1021.2 hPa | 0 mm | - | 0 W/m² | - |
| 1778125060 | 13.89° C | 49% | 1020.9 hPa | 0 mm | - | 0 W/m² | - |
| 1778124757 | 14.44° C | 50% | 1020.8 hPa | 0 mm | - | 0 W/m² | - |
| 1778124454 | 13.89° C | 49% | 1020.7 hPa | 0 mm | - | 0 W/m² | - |
| 1778124150 | 13.89° C | 51% | 1020.8 hPa | 0 mm | - | 0 W/m² | - |
| 1778123847 | 14.44° C | 48% | 1020.6 hPa | 0 mm | - | 0 W/m² | - |
| 1778123544 | 13.89° C | 52% | 1020.9 hPa | 0 mm | - | 0 W/m² | - |
| 1778123241 | 13.89° C | 54% | 1020.6 hPa | 0 mm | - | 0 W/m² | - |
| 1778122938 | 15° C | 53% | 1020.8 hPa | 0 mm | - | 1 W/m² | - |
| 1778122635 | 15.56° C | 45% | 1020.5 hPa | 0 mm | - | 2 W/m² | - |
| 1778122332 | 16.11° C | 44% | 1020.4 hPa | 0 mm | - | 4 W/m² | - |
| 1778122030 | 16.67° C | 39% | 1020.4 hPa | 0 mm | - | 7 W/m² | - |
| 1778121727 | 15.56° C | 41% | 1020.4 hPa | 0 mm | - | 9 W/m² | - |
| 1778121422 | 15.56° C | 46% | 1020.5 hPa | 0 mm | - | 12 W/m² | - |
| 1778121120 | 15.56° C | 48% | 1020.4 hPa | 0 mm | - | 14 W/m² | - |
| 1778120817 | 15.56° C | 45% | 1020.4 hPa | 0 mm | - | 16 W/m² | - |
| 1778120513 | 16.11° C | 42% | 1020.4 hPa | 0 mm | - | 18 W/m² | - |
| 1778120209 | 16.67° C | 43% | 1019.8 hPa | 0 mm | - | 21 W/m² | - |
| 1778119904 | 17.22° C | 37% | 1020.4 hPa | 0 mm | - | 23 W/m² | - |
| 1778119603 | 17.78° C | 34% | 1020.3 hPa | 0 mm | - | 24 W/m² | - |
| 1778119299 | 17.78° C | 34% | 1020.4 hPa | 0 mm | - | 26 W/m² | - |
| 1778118998 | 17.78° C | 34% | 1020.1 hPa | 0 mm | - | 29 W/m² | - |
| 1778118694 | 17.78° C | 33% | 1020 hPa | 0 mm | - | 29 W/m² | - |
* Rain latest hour (hover to see other rain measurements)
** Current wind speed in m/s (hover to see current wind gust speed)